< < Back
Terminal Aerodrome Forecast


Current Version              Previous Versions:   1  2  3  4  5  6  7  8  9  

Terminal Aerodrome Forecast

947
FTUS42 KTAE 221100
TAFTLH
TAF
KTLH 221124Z 2212/2312 09005KT 1SM -RA BR OVC002
     FM221400 10007KT 4SM -RA BR OVC005
     FM230000 14005KT 2SM -RA BR OVC002=

Latest METAR

905
SAUS80 KWBC 221400 RRB
MTRTLH
METAR KTLH 221353Z 08003KT 1/4SM FG VV002 14/12 A2997 RMK AO2 SFC VIS
1/2 SLP148 T01390122


USA.gov is the U.S. government's official web portal to all federal, state and local government web resources and services.